sensor_id;sensor_type;location;lat;lon;timestamp;P1;durP1;ratioP1;P2;durP2;ratioP2
72929;SDS011;61073;54.260;20.816;2023-03-14T00:00:10;14.82;;;8.35;;
72929;SDS011;61073;54.260;20.816;2023-03-14T00:02:37;15.30;;;8.32;;
72929;SDS011;61073;54.260;20.816;2023-03-14T00:05:04;13.30;;;7.72;;
72929;SDS011;61073;54.260;20.816;2023-03-14T00:07:35;12.77;;;8.18;;
72929;SDS011;61073;54.260;20.816;2023-03-14T00:10:04;15.57;;;7.85;;
72929;SDS011;61073;54.260;20.816;2023-03-14T00:12:31;14.70;;;8.43;;
72929;SDS011;61073;54.260;20.816;2023-03-14T00:14:58;17.00;;;9.00;;
72929;SDS011;61073;54.260;20.816;2023-03-14T00:17:30;13.70;;;8.73;;
72929;SDS011;61073;54.260;20.816;2023-03-14T00:19:57;13.63;;;8.45;;
72929;SDS011;61073;54.260;20.816;2023-03-14T00:22:30;16.85;;;8.80;;
72929;SDS011;61073;54.260;20.816;2023-03-14T00:24:57;16.65;;;9.02;;
72929;SDS011;61073;54.260;20.816;2023-03-14T00:27:25;15.03;;;8.90;;
72929;SDS011;61073;54.260;20.816;2023-03-14T00:29:52;16.70;;;8.68;;
72929;SDS011;61073;54.260;20.816;2023-03-14T00:32:19;14.15;;;8.27;;
72929;SDS011;61073;54.260;20.816;2023-03-14T00:34:46;16.65;;;8.65;;
72929;SDS011;61073;54.260;20.816;2023-03-14T00:37:13;15.27;;;8.80;;
72929;SDS011;61073;54.260;20.816;2023-03-14T00:39:40;15.73;;;8.40;;
72929;SDS011;61073;54.260;20.816;2023-03-14T00:42:08;15.95;;;7.72;;
72929;SDS011;61073;54.260;20.816;2023-03-14T00:44:35;14.87;;;7.63;;
72929;SDS011;61073;54.260;20.816;2023-03-14T00:47:02;13.60;;;8.20;;
72929;SDS011;61073;54.260;20.816;2023-03-14T00:49:29;15.60;;;8.85;;
72929;SDS011;61073;54.260;20.816;2023-03-14T00:51:56;14.35;;;8.70;;
72929;SDS011;61073;54.260;20.816;2023-03-14T00:54:23;14.38;;;8.15;;
72929;SDS011;61073;54.260;20.816;2023-03-14T00:56:50;11.52;;;7.32;;
72929;SDS011;61073;54.260;20.816;2023-03-14T00:59:17;13.38;;;7.20;;
72929;SDS011;61073;54.260;20.816;2023-03-14T01:01:44;12.63;;;7.68;;
72929;SDS011;61073;54.260;20.816;2023-03-14T01:06:39;9.07;;;5.40;;
72929;SDS011;61073;54.260;20.816;2023-03-14T01:11:34;9.30;;;5.45;;
72929;SDS011;61073;54.260;20.816;2023-03-14T01:16:29;10.15;;;5.00;;
72929;SDS011;61073;54.260;20.816;2023-03-14T01:18:56;11.05;;;6.53;;
72929;SDS011;61073;54.260;20.816;2023-03-14T01:21:27;11.13;;;7.07;;
72929;SDS011;61073;54.260;20.816;2023-03-14T01:23:55;13.23;;;7.47;;
72929;SDS011;61073;54.260;20.816;2023-03-14T01:26:23;16.73;;;8.00;;
72929;SDS011;61073;54.260;20.816;2023-03-14T01:28:51;13.50;;;7.50;;
72929;SDS011;61073;54.260;20.816;2023-03-14T01:31:18;14.57;;;7.18;;
72929;SDS011;61073;54.260;20.816;2023-03-14T01:33:46;13.13;;;7.50;;
72929;SDS011;61073;54.260;20.816;2023-03-14T01:36:13;13.68;;;7.60;;
72929;SDS011;61073;54.260;20.816;2023-03-14T01:38:41;12.25;;;7.43;;
72929;SDS011;61073;54.260;20.816;2023-03-14T01:41:09;17.73;;;8.27;;
72929;SDS011;61073;54.260;20.816;2023-03-14T01:43:38;12.65;;;7.75;;
72929;SDS011;61073;54.260;20.816;2023-03-14T01:50:59;15.18;;;8.10;;
72929;SDS011;61073;54.260;20.816;2023-03-14T01:53:28;12.65;;;7.90;;
72929;SDS011;61073;54.260;20.816;2023-03-14T01:55:55;14.53;;;8.57;;
72929;SDS011;61073;54.260;20.816;2023-03-14T01:58:24;13.05;;;8.43;;
72929;SDS011;61073;54.260;20.816;2023-03-14T02:00:53;12.82;;;7.80;;
72929;SDS011;61073;54.260;20.816;2023-03-14T02:03:20;13.82;;;8.73;;
72929;SDS011;61073;54.260;20.816;2023-03-14T02:05:49;14.68;;;8.48;;
72929;SDS011;61073;54.260;20.816;2023-03-14T02:08:18;12.95;;;8.40;;
72929;SDS011;61073;54.260;20.816;2023-03-14T02:10:47;14.48;;;8.23;;
72929;SDS011;61073;54.260;20.816;2023-03-14T02:13:15;11.20;;;7.53;;
72929;SDS011;61073;54.260;20.816;2023-03-14T02:15:42;14.93;;;8.30;;
72929;SDS011;61073;54.260;20.816;2023-03-14T02:18:09;14.25;;;7.90;;
72929;SDS011;61073;54.260;20.816;2023-03-14T02:23:24;13.05;;;8.20;;
72929;SDS011;61073;54.260;20.816;2023-03-14T02:28:23;12.20;;;7.60;;
72929;SDS011;61073;54.260;20.816;2023-03-14T02:30:50;12.93;;;8.48;;
72929;SDS011;61073;54.260;20.816;2023-03-14T02:33:18;13.60;;;8.88;;
72929;SDS011;61073;54.260;20.816;2023-03-14T02:40:40;12.80;;;7.70;;
72929;SDS011;61073;54.260;20.816;2023-03-14T02:43:07;13.97;;;8.10;;
72929;SDS011;61073;54.260;20.816;2023-03-14T02:45:36;12.23;;;7.80;;
72929;SDS011;61073;54.260;20.816;2023-03-14T02:48:05;12.55;;;7.93;;
72929;SDS011;61073;54.260;20.816;2023-03-14T02:50:33;10.98;;;7.45;;
72929;SDS011;61073;54.260;20.816;2023-03-14T02:53:01;14.00;;;8.10;;
72929;SDS011;61073;54.260;20.816;2023-03-14T02:55:28;14.15;;;8.20;;
72929;SDS011;61073;54.260;20.816;2023-03-14T02:57:56;11.97;;;7.30;;
72929;SDS011;61073;54.260;20.816;2023-03-14T03:00:23;12.43;;;7.13;;
72929;SDS011;61073;54.260;20.816;2023-03-14T03:02:51;14.85;;;7.80;;
72929;SDS011;61073;54.260;20.816;2023-03-14T03:05:18;14.95;;;7.95;;
72929;SDS011;61073;54.260;20.816;2023-03-14T03:07:45;10.27;;;7.30;;
72929;SDS011;61073;54.260;20.816;2023-03-14T03:10:12;11.65;;;7.32;;
72929;SDS011;61073;54.260;20.816;2023-03-14T03:12:40;13.38;;;7.15;;
72929;SDS011;61073;54.260;20.816;2023-03-14T03:15:08;11.80;;;7.53;;
72929;SDS011;61073;54.260;20.816;2023-03-14T03:17:35;13.35;;;7.55;;
72929;SDS011;61073;54.260;20.816;2023-03-14T03:20:02;11.90;;;7.43;;
72929;SDS011;61073;54.260;20.816;2023-03-14T03:22:31;13.37;;;7.40;;
72929;SDS011;61073;54.260;20.816;2023-03-14T03:24:58;12.30;;;7.25;;
72929;SDS011;61073;54.260;20.816;2023-03-14T03:27:25;11.23;;;6.95;;
72929;SDS011;61073;54.260;20.816;2023-03-14T03:29:52;10.80;;;6.80;;
72929;SDS011;61073;54.260;20.816;2023-03-14T03:32:19;14.25;;;7.38;;
72929;SDS011;61073;54.260;20.816;2023-03-14T03:34:46;10.88;;;7.07;;
72929;SDS011;61073;54.260;20.816;2023-03-14T03:37:13;11.55;;;6.78;;
72929;SDS011;61073;54.260;20.816;2023-03-14T03:39:40;10.52;;;6.90;;
72929;SDS011;61073;54.260;20.816;2023-03-14T03:42:07;12.20;;;7.00;;
72929;SDS011;61073;54.260;20.816;2023-03-14T03:44:34;12.38;;;7.35;;
72929;SDS011;61073;54.260;20.816;2023-03-14T03:47:03;12.20;;;6.88;;
72929;SDS011;61073;54.260;20.816;2023-03-14T03:49:30;12.20;;;6.45;;
72929;SDS011;61073;54.260;20.816;2023-03-14T03:51:58;11.73;;;6.53;;
72929;SDS011;61073;54.260;20.816;2023-03-14T03:54:25;10.23;;;6.78;;
72929;SDS011;61073;54.260;20.816;2023-03-14T03:56:52;12.73;;;7.40;;
72929;SDS011;61073;54.260;20.816;2023-03-14T03:59:20;10.07;;;6.43;;
72929;SDS011;61073;54.260;20.816;2023-03-14T04:01:47;10.30;;;6.72;;
72929;SDS011;61073;54.260;20.816;2023-03-14T04:04:15;12.88;;;6.93;;
72929;SDS011;61073;54.260;20.816;2023-03-14T04:06:42;11.13;;;6.75;;
72929;SDS011;61073;54.260;20.816;2023-03-14T04:09:10;11.25;;;6.80;;
72929;SDS011;61073;54.260;20.816;2023-03-14T04:11:37;10.52;;;6.28;;
72929;SDS011;61073;54.260;20.816;2023-03-14T04:14:05;11.25;;;6.78;;
72929;SDS011;61073;54.260;20.816;2023-03-14T04:16:32;12.68;;;7.13;;
72929;SDS011;61073;54.260;20.816;2023-03-14T04:19:00;10.15;;;6.35;;
72929;SDS011;61073;54.260;20.816;2023-03-14T04:21:27;9.45;;;6.75;;
72929;SDS011;61073;54.260;20.816;2023-03-14T04:23:55;9.95;;;5.95;;
72929;SDS011;61073;54.260;20.816;2023-03-14T04:26:22;11.73;;;6.82;;
72929;SDS011;61073;54.260;20.816;2023-03-14T04:28:49;10.63;;;6.63;;
72929;SDS011;61073;54.260;20.816;2023-03-14T04:31:19;10.32;;;6.40;;
72929;SDS011;61073;54.260;20.816;2023-03-14T04:33:47;10.50;;;6.38;;
72929;SDS011;61073;54.260;20.816;2023-03-14T04:36:14;10.70;;;6.13;;
72929;SDS011;61073;54.260;20.816;2023-03-14T04:38:41;10.48;;;6.10;;
72929;SDS011;61073;54.260;20.816;2023-03-14T04:41:08;8.57;;;6.10;;
72929;SDS011;61073;54.260;20.816;2023-03-14T04:43:35;11.52;;;6.20;;
72929;SDS011;61073;54.260;20.816;2023-03-14T04:46:02;9.30;;;5.63;;
72929;SDS011;61073;54.260;20.816;2023-03-14T04:48:30;9.60;;;5.80;;
72929;SDS011;61073;54.260;20.816;2023-03-14T04:50:57;11.48;;;6.18;;
72929;SDS011;61073;54.260;20.816;2023-03-14T04:53:24;9.70;;;5.95;;
72929;SDS011;61073;54.260;20.816;2023-03-14T04:55:52;8.93;;;5.57;;
72929;SDS011;61073;54.260;20.816;2023-03-14T04:58:19;10.60;;;6.05;;
72929;SDS011;61073;54.260;20.816;2023-03-14T05:00:47;10.50;;;5.50;;
72929;SDS011;61073;54.260;20.816;2023-03-14T05:03:14;13.30;;;5.80;;
72929;SDS011;61073;54.260;20.816;2023-03-14T05:05:41;10.57;;;5.60;;
72929;SDS011;61073;54.260;20.816;2023-03-14T05:08:09;9.65;;;5.80;;
72929;SDS011;61073;54.260;20.816;2023-03-14T05:10:36;9.10;;;5.85;;
72929;SDS011;61073;54.260;20.816;2023-03-14T05:13:03;12.30;;;5.87;;
72929;SDS011;61073;54.260;20.816;2023-03-14T05:15:30;9.57;;;5.88;;
72929;SDS011;61073;54.260;20.816;2023-03-14T05:17:57;9.80;;;5.57;;
72929;SDS011;61073;54.260;20.816;2023-03-14T05:20:24;10.10;;;5.93;;
72929;SDS011;61073;54.260;20.816;2023-03-14T05:22:51;9.13;;;5.43;;
72929;SDS011;61073;54.260;20.816;2023-03-14T05:25:18;8.90;;;5.53;;
72929;SDS011;61073;54.260;20.816;2023-03-14T05:27:45;9.77;;;6.00;;
72929;SDS011;61073;54.260;20.816;2023-03-14T05:30:13;11.23;;;5.90;;
72929;SDS011;61073;54.260;20.816;2023-03-14T05:32:40;9.40;;;5.60;;
72929;SDS011;61073;54.260;20.816;2023-03-14T05:35:07;11.20;;;5.97;;
72929;SDS011;61073;54.260;20.816;2023-03-14T05:37:34;11.65;;;6.65;;
72929;SDS011;61073;54.260;20.816;2023-03-14T05:40:02;12.18;;;7.38;;
72929;SDS011;61073;54.260;20.816;2023-03-14T05:42:30;14.38;;;6.70;;
72929;SDS011;61073;54.260;20.816;2023-03-14T05:44:58;11.13;;;6.65;;
72929;SDS011;61073;54.260;20.816;2023-03-14T05:47:25;12.40;;;6.40;;
72929;SDS011;61073;54.260;20.816;2023-03-14T05:49:52;9.65;;;6.13;;
72929;SDS011;61073;54.260;20.816;2023-03-14T05:52:19;10.40;;;6.28;;
72929;SDS011;61073;54.260;20.816;2023-03-14T05:54:46;10.48;;;5.90;;
72929;SDS011;61073;54.260;20.816;2023-03-14T05:57:13;11.25;;;6.53;;
72929;SDS011;61073;54.260;20.816;2023-03-14T05:59:40;12.57;;;6.97;;
72929;SDS011;61073;54.260;20.816;2023-03-14T06:02:07;9.75;;;6.35;;
72929;SDS011;61073;54.260;20.816;2023-03-14T06:04:34;12.25;;;6.57;;
72929;SDS011;61073;54.260;20.816;2023-03-14T06:07:01;10.52;;;6.20;;
72929;SDS011;61073;54.260;20.816;2023-03-14T06:09:29;11.48;;;6.28;;
72929;SDS011;61073;54.260;20.816;2023-03-14T06:11:56;10.93;;;7.03;;
72929;SDS011;61073;54.260;20.816;2023-03-14T06:14:23;12.27;;;7.18;;
72929;SDS011;61073;54.260;20.816;2023-03-14T06:16:50;10.35;;;6.50;;
72929;SDS011;61073;54.260;20.816;2023-03-14T06:19:18;12.93;;;6.80;;
72929;SDS011;61073;54.260;20.816;2023-03-14T06:21:46;11.75;;;7.13;;
72929;SDS011;61073;54.260;20.816;2023-03-14T06:24:13;12.63;;;7.03;;
72929;SDS011;61073;54.260;20.816;2023-03-14T06:26:40;13.75;;;7.50;;
72929;SDS011;61073;54.260;20.816;2023-03-14T06:29:07;12.70;;;7.28;;
72929;SDS011;61073;54.260;20.816;2023-03-14T06:31:34;12.77;;;7.20;;
72929;SDS011;61073;54.260;20.816;2023-03-14T06:34:02;12.25;;;7.53;;
72929;SDS011;61073;54.260;20.816;2023-03-14T06:36:29;11.15;;;6.47;;
72929;SDS011;61073;54.260;20.816;2023-03-14T06:38:56;9.93;;;6.43;;
72929;SDS011;61073;54.260;20.816;2023-03-14T06:41:23;10.52;;;6.32;;
72929;SDS011;61073;54.260;20.816;2023-03-14T06:43:52;12.88;;;6.65;;
72929;SDS011;61073;54.260;20.816;2023-03-14T06:46:21;14.80;;;7.40;;
72929;SDS011;61073;54.260;20.816;2023-03-14T06:48:48;13.63;;;7.72;;
72929;SDS011;61073;54.260;20.816;2023-03-14T06:51:15;11.80;;;7.93;;
72929;SDS011;61073;54.260;20.816;2023-03-14T06:53:43;13.73;;;7.93;;
72929;SDS011;61073;54.260;20.816;2023-03-14T06:56:10;14.43;;;8.30;;
72929;SDS011;61073;54.260;20.816;2023-03-14T06:58:37;12.40;;;7.40;;
72929;SDS011;61073;54.260;20.816;2023-03-14T07:01:04;13.23;;;7.95;;
72929;SDS011;61073;54.260;20.816;2023-03-14T07:03:33;14.60;;;8.38;;
72929;SDS011;61073;54.260;20.816;2023-03-14T07:06:00;10.52;;;7.15;;
72929;SDS011;61073;54.260;20.816;2023-03-14T07:08:27;14.27;;;7.60;;
72929;SDS011;61073;54.260;20.816;2023-03-14T07:10:56;11.68;;;7.10;;
72929;SDS011;61073;54.260;20.816;2023-03-14T07:13:23;13.93;;;8.20;;
72929;SDS011;61073;54.260;20.816;2023-03-14T07:15:50;16.25;;;8.43;;
72929;SDS011;61073;54.260;20.816;2023-03-14T07:18:17;15.32;;;8.50;;
72929;SDS011;61073;54.260;20.816;2023-03-14T07:20:45;14.02;;;8.68;;
72929;SDS011;61073;54.260;20.816;2023-03-14T07:23:14;18.55;;;8.82;;
72929;SDS011;61073;54.260;20.816;2023-03-14T07:25:41;18.85;;;8.65;;
72929;SDS011;61073;54.260;20.816;2023-03-14T07:28:10;17.98;;;8.68;;
72929;SDS011;61073;54.260;20.816;2023-03-14T07:30:37;13.37;;;7.40;;
72929;SDS011;61073;54.260;20.816;2023-03-14T07:33:04;13.40;;;7.22;;
72929;SDS011;61073;54.260;20.816;2023-03-14T07:35:31;13.53;;;6.53;;
72929;SDS011;61073;54.260;20.816;2023-03-14T07:37:58;11.57;;;6.82;;
72929;SDS011;61073;54.260;20.816;2023-03-14T07:40:26;10.93;;;7.00;;
72929;SDS011;61073;54.260;20.816;2023-03-14T07:42:53;11.43;;;6.85;;
72929;SDS011;61073;54.260;20.816;2023-03-14T07:45:21;10.53;;;6.87;;
72929;SDS011;61073;54.260;20.816;2023-03-14T07:47:50;10.73;;;6.53;;
72929;SDS011;61073;54.260;20.816;2023-03-14T07:50:17;11.35;;;7.20;;
72929;SDS011;61073;54.260;20.816;2023-03-14T07:52:45;14.93;;;6.70;;
72929;SDS011;61073;54.260;20.816;2023-03-14T07:55:12;13.05;;;7.15;;
72929;SDS011;61073;54.260;20.816;2023-03-14T07:57:39;15.13;;;7.90;;
72929;SDS011;61073;54.260;20.816;2023-03-14T08:00:07;13.95;;;6.72;;
72929;SDS011;61073;54.260;20.816;2023-03-14T08:02:34;16.20;;;6.47;;
72929;SDS011;61073;54.260;20.816;2023-03-14T08:05:03;12.27;;;5.95;;
72929;SDS011;61073;54.260;20.816;2023-03-14T08:07:30;13.15;;;6.28;;
72929;SDS011;61073;54.260;20.816;2023-03-14T08:09:57;13.98;;;6.00;;
72929;SDS011;61073;54.260;20.816;2023-03-14T08:12:24;12.50;;;5.68;;
72929;SDS011;61073;54.260;20.816;2023-03-14T08:14:51;11.77;;;6.47;;
72929;SDS011;61073;54.260;20.816;2023-03-14T08:17:19;10.48;;;5.53;;
72929;SDS011;61073;54.260;20.816;2023-03-14T08:22:13;8.55;;;5.32;;
72929;SDS011;61073;54.260;20.816;2023-03-14T08:34:32;9.00;;;4.30;;
72929;SDS011;61073;54.260;20.816;2023-03-14T08:36:59;10.80;;;6.03;;
72929;SDS011;61073;54.260;20.816;2023-03-14T08:39:27;10.00;;;6.32;;
72929;SDS011;61073;54.260;20.816;2023-03-14T08:41:55;11.45;;;6.03;;
72929;SDS011;61073;54.260;20.816;2023-03-14T08:44:22;13.98;;;7.07;;
72929;SDS011;61073;54.260;20.816;2023-03-14T08:46:49;12.30;;;5.70;;
72929;SDS011;61073;54.260;20.816;2023-03-14T08:49:16;12.82;;;6.72;;
72929;SDS011;61073;54.260;20.816;2023-03-14T08:51:43;20.27;;;10.10;;
72929;SDS011;61073;54.260;20.816;2023-03-14T08:56:37;10.87;;;5.97;;
72929;SDS011;61073;54.260;20.816;2023-03-14T08:59:05;11.32;;;5.65;;
72929;SDS011;61073;54.260;20.816;2023-03-14T09:01:32;11.38;;;6.05;;
72929;SDS011;61073;54.260;20.816;2023-03-14T09:06:26;9.30;;;5.97;;
72929;SDS011;61073;54.260;20.816;2023-03-14T09:08:54;12.05;;;6.43;;
72929;SDS011;61073;54.260;20.816;2023-03-14T09:11:21;11.05;;;5.45;;
72929;SDS011;61073;54.260;20.816;2023-03-14T09:13:48;18.50;;;6.60;;
72929;SDS011;61073;54.260;20.816;2023-03-14T09:16:15;10.98;;;6.03;;
72929;SDS011;61073;54.260;20.816;2023-03-14T09:18:42;12.27;;;6.07;;
72929;SDS011;61073;54.260;20.816;2023-03-14T09:21:09;8.82;;;5.40;;
72929;SDS011;61073;54.260;20.816;2023-03-14T09:23:36;12.68;;;6.03;;
72929;SDS011;61073;54.260;20.816;2023-03-14T09:26:03;11.30;;;6.38;;
72929;SDS011;61073;54.260;20.816;2023-03-14T09:28:31;11.90;;;5.82;;
72929;SDS011;61073;54.260;20.816;2023-03-14T09:31:04;10.43;;;6.20;;
72929;SDS011;61073;54.260;20.816;2023-03-14T09:33:31;13.48;;;5.50;;
72929;SDS011;61073;54.260;20.816;2023-03-14T09:35:58;10.98;;;5.82;;
72929;SDS011;61073;54.260;20.816;2023-03-14T09:38:26;11.38;;;6.43;;
72929;SDS011;61073;54.260;20.816;2023-03-14T09:40:53;13.23;;;6.65;;
72929;SDS011;61073;54.260;20.816;2023-03-14T09:43:21;9.18;;;5.97;;
72929;SDS011;61073;54.260;20.816;2023-03-14T09:45:49;9.32;;;5.30;;
72929;SDS011;61073;54.260;20.816;2023-03-14T09:48:24;11.70;;;5.78;;
72929;SDS011;61073;54.260;20.816;2023-03-14T09:50:54;10.98;;;6.07;;
72929;SDS011;61073;54.260;20.816;2023-03-14T09:53:23;9.73;;;5.97;;
72929;SDS011;61073;54.260;20.816;2023-03-14T09:55:51;11.43;;;5.88;;
72929;SDS011;61073;54.260;20.816;2023-03-14T09:58:19;9.45;;;6.22;;
72929;SDS011;61073;54.260;20.816;2023-03-14T10:00:48;15.82;;;6.43;;
72929;SDS011;61073;54.260;20.816;2023-03-14T10:03:26;9.32;;;5.72;;
72929;SDS011;61073;54.260;20.816;2023-03-14T10:05:53;15.32;;;5.85;;
72929;SDS011;61073;54.260;20.816;2023-03-14T10:08:21;10.07;;;5.90;;
72929;SDS011;61073;54.260;20.816;2023-03-14T10:10:49;10.85;;;5.97;;
72929;SDS011;61073;54.260;20.816;2023-03-14T10:13:18;11.05;;;6.45;;
72929;SDS011;61073;54.260;20.816;2023-03-14T10:15:51;9.98;;;5.60;;
72929;SDS011;61073;54.260;20.816;2023-03-14T10:18:18;9.23;;;5.45;;
72929;SDS011;61073;54.260;20.816;2023-03-14T10:20:47;8.20;;;5.47;;
72929;SDS011;61073;54.260;20.816;2023-03-14T10:25:45;9.23;;;4.72;;
72929;SDS011;61073;54.260;20.816;2023-03-14T10:30:56;10.27;;;6.15;;
72929;SDS011;61073;54.260;20.816;2023-03-14T10:33:25;9.38;;;5.35;;
72929;SDS011;61073;54.260;20.816;2023-03-14T10:36:00;11.88;;;6.13;;
72929;SDS011;61073;54.260;20.816;2023-03-14T10:38:31;12.38;;;6.78;;
72929;SDS011;61073;54.260;20.816;2023-03-14T10:40:59;14.40;;;6.38;;
72929;SDS011;61073;54.260;20.816;2023-03-14T10:43:33;11.63;;;6.70;;
72929;SDS011;61073;54.260;20.816;2023-03-14T10:46:05;8.77;;;5.45;;
72929;SDS011;61073;54.260;20.816;2023-03-14T10:48:34;11.40;;;6.25;;
72929;SDS011;61073;54.260;20.816;2023-03-14T10:56:13;11.80;;;5.70;;
72929;SDS011;61073;54.260;20.816;2023-03-14T10:58:42;15.20;;;5.95;;
72929;SDS011;61073;54.260;20.816;2023-03-14T11:01:14;10.80;;;5.60;;
72929;SDS011;61073;54.260;20.816;2023-03-14T11:03:49;10.10;;;5.55;;
72929;SDS011;61073;54.260;20.816;2023-03-14T11:06:20;10.45;;;5.35;;
72929;SDS011;61073;54.260;20.816;2023-03-14T11:11:33;8.80;;;4.80;;
72929;SDS011;61073;54.260;20.816;2023-03-14T11:14:11;10.13;;;5.45;;
72929;SDS011;61073;54.260;20.816;2023-03-14T11:32:08;13.50;;;6.45;;
72929;SDS011;61073;54.260;20.816;2023-03-14T11:34:44;8.73;;;5.82;;
72929;SDS011;61073;54.260;20.816;2023-03-14T11:37:17;13.57;;;6.93;;
72929;SDS011;61073;54.260;20.816;2023-03-14T11:42:31;10.20;;;6.03;;
72929;SDS011;61073;54.260;20.816;2023-03-14T11:44:59;9.80;;;5.53;;
72929;SDS011;61073;54.260;20.816;2023-03-14T11:47:34;12.52;;;5.70;;
72929;SDS011;61073;54.260;20.816;2023-03-14T11:52:50;14.48;;;6.53;;
72929;SDS011;61073;54.260;20.816;2023-03-14T11:55:24;11.35;;;6.43;;
72929;SDS011;61073;54.260;20.816;2023-03-14T11:57:53;10.10;;;6.63;;
72929;SDS011;61073;54.260;20.816;2023-03-14T12:00:23;10.80;;;5.88;;
72929;SDS011;61073;54.260;20.816;2023-03-14T12:08:14;12.73;;;5.65;;
72929;SDS011;61073;54.260;20.816;2023-03-14T12:11:29;10.98;;;6.32;;
72929;SDS011;61073;54.260;20.816;2023-03-14T12:13:36;8.48;;;5.68;;
72929;SDS011;61073;54.260;20.816;2023-03-14T12:16:05;8.02;;;4.78;;
72929;SDS011;61073;54.260;20.816;2023-03-14T12:18:34;10.13;;;5.22;;
72929;SDS011;61073;54.260;20.816;2023-03-14T12:21:08;7.32;;;4.32;;
72929;SDS011;61073;54.260;20.816;2023-03-14T12:23:41;7.38;;;4.78;;
72929;SDS011;61073;54.260;20.816;2023-03-14T12:26:13;11.00;;;5.25;;
72929;SDS011;61073;54.260;20.816;2023-03-14T12:28:51;10.60;;;5.40;;
72929;SDS011;61073;54.260;20.816;2023-03-14T12:42:08;11.00;;;6.43;;
72929;SDS011;61073;54.260;20.816;2023-03-14T12:44:39;9.82;;;6.20;;
72929;SDS011;61073;54.260;20.816;2023-03-14T12:49:50;11.10;;;5.32;;
72929;SDS011;61073;54.260;20.816;2023-03-14T12:52:20;16.77;;;6.10;;
72929;SDS011;61073;54.260;20.816;2023-03-14T12:57:51;11.32;;;5.90;;
72929;SDS011;61073;54.260;20.816;2023-03-14T13:00:21;9.77;;;5.40;;
72929;SDS011;61073;54.260;20.816;2023-03-14T13:02:49;9.85;;;5.43;;
72929;SDS011;61073;54.260;20.816;2023-03-14T13:05:20;10.75;;;4.95;;
72929;SDS011;61073;54.260;20.816;2023-03-14T13:10:24;10.13;;;5.95;;
72929;SDS011;61073;54.260;20.816;2023-03-14T13:12:56;10.93;;;5.25;;
72929;SDS011;61073;54.260;20.816;2023-03-14T13:18:02;12.40;;;5.50;;
72929;SDS011;61073;54.260;20.816;2023-03-14T13:20:37;12.63;;;6.00;;
72929;SDS011;61073;54.260;20.816;2023-03-14T13:23:05;6.65;;;4.88;;
72929;SDS011;61073;54.260;20.816;2023-03-14T13:25:32;10.07;;;5.57;;
72929;SDS011;61073;54.260;20.816;2023-03-14T13:28:00;10.80;;;5.60;;
72929;SDS011;61073;54.260;20.816;2023-03-14T13:30:28;10.10;;;4.90;;
72929;SDS011;61073;54.260;20.816;2023-03-14T13:32:56;10.00;;;4.97;;
72929;SDS011;61073;54.260;20.816;2023-03-14T13:35:25;10.20;;;5.88;;
72929;SDS011;61073;54.260;20.816;2023-03-14T13:37:57;11.00;;;5.88;;
72929;SDS011;61073;54.260;20.816;2023-03-14T13:40:35;13.95;;;6.18;;
72929;SDS011;61073;54.260;20.816;2023-03-14T13:43:04;14.48;;;5.35;;
72929;SDS011;61073;54.260;20.816;2023-03-14T13:45:55;10.02;;;4.80;;
72929;SDS011;61073;54.260;20.816;2023-03-14T13:48:22;10.43;;;4.82;;
72929;SDS011;61073;54.260;20.816;2023-03-14T13:50:51;16.25;;;4.90;;
72929;SDS011;61073;54.260;20.816;2023-03-14T13:53:18;12.05;;;5.07;;
72929;SDS011;61073;54.260;20.816;2023-03-14T13:55:45;16.17;;;6.43;;
72929;SDS011;61073;54.260;20.816;2023-03-14T13:58:24;13.77;;;5.13;;
72929;SDS011;61073;54.260;20.816;2023-03-14T14:03:36;7.88;;;4.88;;
72929;SDS011;61073;54.260;20.816;2023-03-14T14:06:05;9.23;;;5.07;;
72929;SDS011;61073;54.260;20.816;2023-03-14T14:08:34;10.73;;;5.10;;
72929;SDS011;61073;54.260;20.816;2023-03-14T14:11:03;9.10;;;5.18;;
72929;SDS011;61073;54.260;20.816;2023-03-14T14:13:32;8.88;;;4.78;;
72929;SDS011;61073;54.260;20.816;2023-03-14T14:16:00;8.35;;;4.68;;
72929;SDS011;61073;54.260;20.816;2023-03-14T14:18:28;9.50;;;5.55;;
72929;SDS011;61073;54.260;20.816;2023-03-14T14:20:55;7.63;;;4.72;;
72929;SDS011;61073;54.260;20.816;2023-03-14T14:23:24;9.95;;;5.80;;
72929;SDS011;61073;54.260;20.816;2023-03-14T14:25:57;14.65;;;4.82;;
72929;SDS011;61073;54.260;20.816;2023-03-14T14:28:26;10.13;;;4.25;;
72929;SDS011;61073;54.260;20.816;2023-03-14T14:31:01;11.38;;;5.68;;
72929;SDS011;61073;54.260;20.816;2023-03-14T14:33:28;7.85;;;4.55;;
72929;SDS011;61073;54.260;20.816;2023-03-14T14:35:57;9.35;;;4.85;;
72929;SDS011;61073;54.260;20.816;2023-03-14T14:38:24;10.52;;;4.93;;
72929;SDS011;61073;54.260;20.816;2023-03-14T14:40:58;10.38;;;5.72;;
72929;SDS011;61073;54.260;20.816;2023-03-14T14:43:28;11.25;;;5.60;;
72929;SDS011;61073;54.260;20.816;2023-03-14T14:45:57;17.00;;;7.72;;
72929;SDS011;61073;54.260;20.816;2023-03-14T14:48:25;23.10;;;9.48;;
72929;SDS011;61073;54.260;20.816;2023-03-14T14:50:59;17.42;;;7.90;;
72929;SDS011;61073;54.260;20.816;2023-03-14T14:55:58;11.75;;;6.53;;
72929;SDS011;61073;54.260;20.816;2023-03-14T14:58:34;11.52;;;6.05;;
72929;SDS011;61073;54.260;20.816;2023-03-14T15:01:05;12.10;;;6.60;;
72929;SDS011;61073;54.260;20.816;2023-03-14T15:03:33;10.15;;;5.45;;
72929;SDS011;61073;54.260;20.816;2023-03-14T15:06:02;8.30;;;5.43;;
72929;SDS011;61073;54.260;20.816;2023-03-14T15:08:30;13.63;;;6.00;;
72929;SDS011;61073;54.260;20.816;2023-03-14T15:10:58;12.45;;;6.05;;
72929;SDS011;61073;54.260;20.816;2023-03-14T15:13:25;11.45;;;5.93;;
72929;SDS011;61073;54.260;20.816;2023-03-14T15:15:52;9.98;;;5.20;;
72929;SDS011;61073;54.260;20.816;2023-03-14T15:18:25;12.35;;;6.68;;
72929;SDS011;61073;54.260;20.816;2023-03-14T15:20:56;11.95;;;6.00;;
72929;SDS011;61073;54.260;20.816;2023-03-14T15:23:24;15.10;;;6.28;;
72929;SDS011;61073;54.260;20.816;2023-03-14T15:25:51;13.80;;;7.30;;
72929;SDS011;61073;54.260;20.816;2023-03-14T15:28:25;12.23;;;6.22;;
72929;SDS011;61073;54.260;20.816;2023-03-14T15:30:53;13.00;;;6.70;;
72929;SDS011;61073;54.260;20.816;2023-03-14T15:33:21;10.93;;;6.78;;
72929;SDS011;61073;54.260;20.816;2023-03-14T15:35:49;16.60;;;6.78;;
72929;SDS011;61073;54.260;20.816;2023-03-14T15:38:17;10.25;;;5.53;;
72929;SDS011;61073;54.260;20.816;2023-03-14T15:40:51;10.48;;;5.80;;
72929;SDS011;61073;54.260;20.816;2023-03-14T15:43:19;10.23;;;6.10;;
72929;SDS011;61073;54.260;20.816;2023-03-14T15:45:46;13.25;;;5.72;;
72929;SDS011;61073;54.260;20.816;2023-03-14T15:48:14;9.30;;;5.63;;
72929;SDS011;61073;54.260;20.816;2023-03-14T15:50:42;12.07;;;6.88;;
72929;SDS011;61073;54.260;20.816;2023-03-14T15:53:09;12.25;;;7.30;;
72929;SDS011;61073;54.260;20.816;2023-03-14T15:55:37;13.63;;;6.80;;
72929;SDS011;61073;54.260;20.816;2023-03-14T15:58:04;13.93;;;6.65;;
72929;SDS011;61073;54.260;20.816;2023-03-14T16:00:31;12.10;;;6.10;;
72929;SDS011;61073;54.260;20.816;2023-03-14T16:03:00;13.30;;;6.43;;
72929;SDS011;61073;54.260;20.816;2023-03-14T16:05:28;12.90;;;7.10;;
72929;SDS011;61073;54.260;20.816;2023-03-14T16:07:55;15.98;;;6.70;;
72929;SDS011;61073;54.260;20.816;2023-03-14T16:10:22;16.83;;;7.22;;
72929;SDS011;61073;54.260;20.816;2023-03-14T16:12:49;12.27;;;6.93;;
72929;SDS011;61073;54.260;20.816;2023-03-14T16:15:17;12.00;;;6.75;;